createdAt,value
2023-04-04T00:00:24.980Z,99.90
2023-04-04T00:06:28.104Z,99.90
2023-04-04T00:12:31.170Z,99.90
2023-04-04T00:18:35.496Z,99.90
2023-04-04T00:24:41.239Z,99.90
2023-04-04T00:30:45.161Z,99.90
2023-04-04T00:36:49.005Z,99.90
2023-04-04T00:42:53.868Z,99.90
2023-04-04T00:48:58.346Z,99.90
2023-04-04T00:55:01.925Z,99.90
2023-04-04T01:01:11.443Z,99.90
2023-04-04T01:07:15.711Z,99.90
2023-04-04T01:13:19.660Z,99.90
2023-04-04T01:19:31.839Z,99.90
2023-04-04T01:25:39.205Z,99.90
2023-04-04T01:31:54.587Z,99.90
2023-04-04T01:38:26.271Z,99.90
2023-04-04T01:44:29.874Z,99.90
2023-04-04T01:50:33.596Z,99.90
2023-04-04T01:56:36.919Z,99.90
2023-04-04T02:02:40.278Z,99.90
2023-04-04T02:08:44.268Z,99.90
2023-04-04T02:14:48.352Z,99.90
2023-04-04T02:20:56.711Z,99.90
2023-04-04T02:26:58.607Z,99.90
2023-04-04T02:33:01.713Z,99.90
2023-04-04T02:39:05.879Z,99.90
2023-04-04T02:45:08.573Z,99.90
2023-04-04T02:51:11.904Z,99.90
2023-04-04T02:57:13.845Z,99.90
2023-04-04T03:03:16.225Z,99.90
2023-04-04T03:09:21.069Z,99.90
2023-04-04T03:15:23.080Z,99.90
2023-04-04T03:21:25.036Z,99.90
2023-04-04T03:27:26.943Z,99.90
2023-04-04T03:33:29.363Z,99.90
2023-04-04T03:39:31.208Z,99.90
2023-04-04T03:45:35.721Z,99.90
2023-04-04T03:51:37.678Z,99.90
2023-04-04T03:57:39.671Z,99.90
2023-04-04T04:03:45.007Z,99.90
2023-04-04T04:09:46.913Z,99.90
2023-04-04T04:15:49.360Z,99.90
2023-04-04T04:21:56.249Z,99.90
2023-04-04T04:28:00.249Z,99.90
2023-04-04T04:34:10.947Z,99.90
2023-04-04T04:40:16.356Z,99.90
2023-04-04T04:46:24.797Z,99.90
2023-04-04T04:52:29.277Z,99.90
2023-04-04T04:58:32.012Z,99.90
2023-04-04T05:04:35.713Z,99.90
2023-04-04T05:10:40.763Z,99.90
2023-04-04T05:16:43.506Z,99.90
2023-04-04T05:22:46.495Z,99.90
2023-04-04T05:28:54.165Z,99.90
2023-04-04T05:34:57.014Z,99.90
2023-04-04T05:40:58.909Z,99.90
2023-04-04T05:47:01.329Z,99.90
2023-04-04T05:53:04.633Z,99.90
2023-04-04T05:59:06.717Z,99.90
2023-04-04T06:05:15.616Z,99.90
2023-04-04T06:11:17.624Z,99.90
2023-04-04T06:17:23.789Z,99.90
2023-04-04T06:23:25.691Z,99.90
2023-04-04T06:29:27.993Z,99.90
2023-04-04T06:35:32.933Z,99.90
2023-04-04T06:41:36.483Z,99.90
2023-04-04T06:47:38.565Z,99.90
2023-04-04T06:53:40.892Z,99.90
2023-04-04T06:59:44.988Z,99.90
2023-04-04T07:05:47.433Z,99.90
2023-04-04T07:11:49.337Z,99.90
2023-04-04T07:17:51.255Z,99.90
2023-04-04T07:23:53.731Z,99.90
2023-04-04T07:29:55.890Z,99.90
2023-04-04T07:35:57.929Z,99.90
2023-04-04T07:41:59.815Z,99.90
2023-04-04T07:48:02.139Z,99.90
2023-04-04T07:54:04.151Z,99.90
2023-04-04T08:00:10.051Z,99.90
2023-04-04T08:06:15.711Z,99.90
2023-04-04T08:12:17.565Z,99.90
2023-04-04T08:18:19.395Z,99.90
2023-04-04T08:24:22.426Z,99.90
2023-04-04T08:30:24.545Z,99.90
2023-04-04T08:36:26.351Z,99.90
2023-04-04T08:42:28.674Z,99.90
2023-04-04T08:48:31.029Z,99.90
2023-04-04T08:54:35.019Z,99.90
2023-04-04T09:00:40.578Z,99.90
2023-04-04T09:06:43.075Z,99.90
2023-04-04T09:12:47.681Z,99.90
2023-04-04T09:18:49.546Z,99.90
2023-04-04T09:24:52.534Z,99.90
2023-04-04T09:30:54.408Z,99.90
2023-04-04T09:36:57.286Z,99.90
2023-04-04T09:43:04.748Z,99.90
2023-04-04T09:49:13.173Z,99.90
2023-04-04T09:55:15.668Z,99.90
2023-04-04T10:01:20.224Z,99.90
2023-04-04T10:07:23.516Z,99.90
2023-04-04T10:13:25.945Z,99.90
2023-04-04T10:19:28.060Z,99.90
2023-04-04T10:25:31.178Z,99.90
2023-04-04T10:31:34.511Z,99.90
2023-04-04T10:37:54.009Z,99.90
2023-04-04T10:44:01.643Z,99.90
2023-04-04T10:50:13.191Z,99.90
2023-04-04T10:56:17.093Z,99.90
2023-04-04T11:02:51.889Z,99.90
2023-04-04T11:08:56.323Z,99.90
2023-04-04T11:15:10.913Z,99.90
2023-04-04T11:21:24.512Z,99.90
2023-04-04T11:27:30.606Z,99.90
2023-04-04T11:33:32.604Z,99.90
2023-04-04T11:39:34.601Z,99.90
2023-04-04T11:45:37.665Z,99.90
2023-04-04T11:51:43.455Z,99.90
2023-04-04T11:57:47.641Z,99.90
2023-04-04T12:03:50.018Z,99.90
2023-04-04T12:09:52.286Z,99.90
2023-04-04T12:15:56.289Z,99.90
2023-04-04T12:21:59.168Z,99.90
2023-04-04T12:28:03.699Z,99.90
2023-04-04T12:34:05.953Z,99.90
2023-04-04T12:40:10.529Z,99.90
2023-04-04T12:46:12.768Z,99.90
2023-04-04T12:52:22.468Z,99.90
2023-04-04T12:58:28.358Z,99.20
2023-04-04T13:04:31.637Z,97.50
2023-04-04T13:10:59.246Z,98.00
2023-04-04T13:17:06.032Z,98.70
2023-04-04T13:23:08.058Z,97.60
2023-04-04T13:29:10.035Z,99.00
2023-04-04T13:35:13.568Z,99.00
2023-04-04T13:41:15.328Z,99.50
2023-04-04T13:47:17.121Z,98.00
2023-04-04T13:53:19.293Z,98.50
2023-04-04T13:59:21.582Z,98.30
2023-04-04T14:05:23.460Z,98.70
2023-04-04T14:11:30.931Z,97.10
2023-04-04T14:17:32.979Z,97.90
2023-04-04T14:23:34.780Z,99.90
2023-04-04T14:29:36.733Z,97.10
2023-04-04T14:35:38.813Z,96.80
2023-04-04T14:41:40.879Z,97.50
2023-04-04T14:47:42.678Z,97.40
2023-04-04T14:53:44.503Z,96.00
2023-04-04T14:59:46.633Z,96.10
2023-04-04T15:05:49.066Z,96.60
2023-04-04T15:11:52.229Z,96.90
2023-04-04T15:17:54.061Z,97.80
2023-04-04T15:23:56.139Z,97.10
2023-04-04T15:29:57.993Z,96.50
2023-04-04T15:35:59.810Z,98.60
2023-04-04T15:42:02.128Z,97.30
2023-04-04T15:48:04.150Z,97.40
2023-04-04T15:54:06.055Z,97.70
2023-04-04T16:00:08.472Z,97.10
2023-04-04T16:06:13.050Z,97.50
2023-04-04T16:12:14.883Z,94.60
2023-04-04T16:18:16.680Z,93.70
2023-04-04T16:24:18.681Z,91.90
2023-04-04T16:30:20.591Z,91.00
2023-04-04T16:36:22.774Z,90.90
2023-04-04T16:42:24.762Z,90.20
2023-04-04T16:48:26.596Z,92.20
2023-04-04T16:54:28.511Z,94.10
2023-04-04T17:00:30.366Z,95.40
2023-04-04T17:06:33.358Z,96.30
2023-04-04T17:12:35.275Z,97.50
2023-04-04T17:18:37.054Z,97.80
2023-04-04T17:24:38.798Z,98.60
2023-04-04T17:30:41.505Z,98.30
2023-04-04T17:36:43.931Z,99.50
2023-04-04T17:42:46.058Z,99.90
2023-04-04T17:48:48.101Z,99.90
2023-04-04T17:54:52.078Z,99.90
2023-04-04T18:00:55.838Z,99.90
2023-04-04T18:06:57.904Z,99.90
2023-04-04T18:12:59.806Z,99.90
2023-04-04T18:19:02.962Z,99.90
2023-04-04T18:25:06.504Z,99.90
2023-04-04T18:31:11.831Z,99.90
2023-04-04T18:37:15.722Z,99.90
2023-04-04T18:43:20.221Z,99.90
2023-04-04T18:49:23.728Z,99.90
2023-04-04T18:55:26.667Z,99.90
2023-04-04T19:01:31.732Z,99.90
2023-04-04T19:07:36.915Z,99.90
2023-04-04T19:13:40.145Z,99.90
2023-04-04T19:19:44.084Z,99.90
2023-04-04T19:25:49.233Z,99.90
2023-04-04T19:31:55.286Z,99.90
2023-04-04T19:38:01.003Z,99.90
2023-04-04T19:44:07.690Z,99.90
2023-04-04T19:50:34.561Z,99.90
2023-04-04T19:56:37.885Z,99.90
2023-04-04T20:02:43.706Z,99.90
2023-04-04T20:08:53.946Z,99.90
2023-04-04T20:15:01.792Z,99.90
2023-04-04T20:21:19.418Z,99.90
2023-04-04T20:27:28.785Z,99.90
2023-04-04T20:33:43.094Z,99.90
2023-04-04T20:39:58.057Z,99.90
2023-04-04T20:46:04.582Z,99.90
2023-04-04T20:52:07.525Z,99.90
2023-04-04T20:58:19.831Z,99.90
2023-04-04T21:04:26.468Z,99.90
2023-04-04T21:10:28.615Z,99.90
2023-04-04T21:16:30.827Z,99.90
2023-04-04T21:22:32.726Z,99.90
2023-04-04T21:28:41.962Z,99.90
2023-04-04T21:34:43.741Z,99.90
2023-04-04T21:40:45.605Z,99.90
2023-04-04T21:46:47.576Z,99.90
2023-04-04T21:52:49.471Z,99.90
2023-04-04T21:58:51.267Z,99.90
2023-04-04T22:04:53.251Z,99.90
2023-04-04T22:11:01.864Z,99.90
2023-04-04T22:17:05.374Z,99.90
2023-04-04T22:23:07.354Z,99.90
2023-04-04T22:29:09.225Z,99.90
2023-04-04T22:35:12.364Z,99.90
2023-04-04T22:41:14.240Z,99.90
2023-04-04T22:47:16.161Z,99.90
2023-04-04T22:53:24.688Z,99.90
2023-04-04T22:59:26.715Z,99.90
2023-04-04T23:05:29.392Z,99.90
2023-04-04T23:11:31.367Z,99.90
2023-04-04T23:17:34.388Z,99.90
2023-04-04T23:23:36.634Z,99.90
2023-04-04T23:29:38.839Z,99.90
2023-04-04T23:35:40.603Z,99.90
2023-04-04T23:41:42.438Z,99.90
2023-04-04T23:47:44.363Z,99.90
2023-04-04T23:53:46.161Z,99.90
2023-04-04T23:59:48.013Z,99.90
